Time;durP1;ratioP1;P1;durP2;ratioP2;P2;SDS_P1;SDS_P2;PMS_P1;PMS_P2;Temp;Humidity;BMP_temperature;BMP_pressure;BME280_temperature;BME280_humidity;BME280_pressure;Samples;Min_cycle;Max_cycle;Signal;HPM_P1;HPM_P2
2022/04/14 00:00:09;;;;;;;49.88;35.70;;;15.60;99.90;;;;;;5047067;28;20041;-73
2022/04/14 00:02:35;;;;;;;50.53;36.70;;;15.60;99.90;;;;;;5042855;28;20017;-73
2022/04/14 00:05:00;;;;;;;45.30;34.20;;;15.50;99.90;;;;;;5048204;28;20491;-74
2022/04/14 00:07:26;;;;;;;43.40;32.45;;;15.40;99.90;;;;;;5035200;27;20021;-73
2022/04/14 00:09:52;;;;;;;44.30;33.60;;;15.40;99.90;;;;;;5035048;28;20540;-73
2022/04/14 00:12:18;;;;;;;46.20;33.05;;;15.40;99.90;;;;;;5042339;28;20025;-74
2022/04/14 00:14:43;;;;;;;48.60;35.63;;;15.30;99.90;;;;;;5033594;28;20029;-73
2022/04/14 00:17:09;;;;;;;50.95;34.92;;;15.30;99.90;;;;;;5040427;28;20041;-73
2022/04/14 00:19:35;;;;;;;48.30;36.25;;;15.30;99.90;;;;;;5041363;28;20037;-73
2022/04/14 00:22:01;;;;;;;52.35;37.95;;;15.30;99.90;;;;;;5041249;27;20022;-73
2022/04/14 00:24:26;;;;;;;51.38;37.50;;;15.20;99.90;;;;;;5043166;28;20534;-73
2022/04/14 00:26:52;;;;;;;55.60;36.28;;;15.20;99.90;;;;;;5049299;28;20025;-73
2022/04/14 00:29:18;;;;;;;48.97;37.03;;;15.20;99.90;;;;;;5044171;27;20033;-73
2022/04/14 00:31:44;;;;;;;47.47;34.90;;;15.20;99.90;;;;;;5038518;28;20028;-73
2022/04/14 00:34:09;;;;;;;43.15;34.08;;;15.20;99.90;;;;;;5043157;28;20033;-73
2022/04/14 00:36:35;;;;;;;41.58;30.95;;;15.20;99.90;;;;;;5049535;28;20029;-73
2022/04/14 00:39:01;;;;;;;38.40;31.83;;;15.10;99.90;;;;;;5038294;27;20452;-74
2022/04/14 00:41:27;;;;;;;41.15;30.25;;;15.10;99.90;;;;;;5045144;28;20453;-73
2022/04/14 00:43:54;;;;;;;39.42;30.40;;;15.00;99.90;;;;;;5040670;27;20033;-73
2022/04/14 00:46:20;;;;;;;37.03;29.58;;;15.10;99.90;;;;;;5042108;28;20468;-73
2022/04/14 00:48:47;;;;;;;41.20;32.83;;;15.00;99.90;;;;;;5045784;27;20029;-73
2022/04/14 00:51:12;;;;;;;39.80;30.98;;;15.00;99.90;;;;;;5040792;28;20022;-73
2022/04/14 00:53:39;;;;;;;39.08;31.98;;;15.00;99.90;;;;;;5042998;28;20032;-73
2022/04/14 00:56:06;;;;;;;38.42;29.92;;;15.00;99.90;;;;;;5042714;28;20064;-73
2022/04/14 00:58:33;;;;;;;40.25;32.22;;;15.00;99.90;;;;;;5044568;28;20068;-73
2022/04/14 01:01:00;;;;;;;41.85;33.25;;;15.00;99.90;;;;;;5041529;27;20033;-73
2022/04/14 01:03:26;;;;;;;35.42;29.85;;;15.00;99.90;;;;;;5041139;28;20033;-73
2022/04/14 01:05:53;;;;;;;39.47;30.50;;;15.00;99.90;;;;;;5040183;27;20037;-73
2022/04/14 01:08:19;;;;;;;38.53;30.55;;;15.00;99.90;;;;;;5042189;28;20492;-73
2022/04/14 01:10:49;;;;;;;37.22;30.27;;;15.00;99.90;;;;;;5045498;28;20032;-73
2022/04/14 01:13:16;;;;;;;38.08;30.50;;;14.90;99.90;;;;;;5041659;28;20493;-73
2022/04/14 01:15:43;;;;;;;32.95;27.75;;;14.90;99.90;;;;;;5038154;28;20022;-73
2022/04/14 01:18:09;;;;;;;42.85;32.30;;;14.90;99.90;;;;;;5045215;28;20488;-73
2022/04/14 01:20:35;;;;;;;43.15;32.65;;;14.90;99.90;;;;;;5035501;28;20123;-73
2022/04/14 01:23:03;;;;;;;39.28;33.55;;;14.90;99.90;;;;;;5036929;27;20076;-73
2022/04/14 01:25:30;;;;;;;41.53;32.22;;;14.90;99.90;;;;;;5038611;28;20650;-73
2022/04/14 01:27:56;;;;;;;43.30;33.83;;;14.90;99.90;;;;;;5041612;27;20384;-73
2022/04/14 01:30:22;;;;;;;39.17;31.35;;;14.90;99.90;;;;;;5039503;28;20022;-73
2022/04/14 01:32:48;;;;;;;39.70;31.73;;;14.90;99.90;;;;;;5040055;28;20492;-73
2022/04/14 01:35:14;;;;;;;35.15;29.30;;;14.90;99.90;;;;;;5040320;28;20029;-73
2022/04/14 01:37:40;;;;;;;35.33;28.73;;;14.80;99.90;;;;;;5040738;28;20033;-73
2022/04/14 01:40:07;;;;;;;38.53;27.65;;;14.80;99.90;;;;;;5044741;28;20033;-73
2022/04/14 01:42:33;;;;;;;42.17;32.17;;;14.80;99.90;;;;;;5036174;27;20029;-73
2022/04/14 01:44:59;;;;;;;42.88;33.40;;;14.80;99.90;;;;;;5043317;28;20120;-73
2022/04/14 01:47:25;;;;;;;48.55;34.60;;;14.80;99.90;;;;;;5042980;28;20029;-73
2022/04/14 01:49:51;;;;;;;51.88;35.15;;;14.70;99.90;;;;;;5049276;28;20032;-73
2022/04/14 01:52:18;;;;;;;49.28;34.92;;;14.70;99.90;;;;;;5044768;28;20082;-73
2022/04/14 01:54:43;;;;;;;48.15;33.05;;;14.70;99.90;;;;;;5036114;28;20021;-73
2022/04/14 01:57:09;;;;;;;48.28;34.03;;;14.70;99.90;;;;;;5042406;28;20025;-73
2022/04/14 01:59:35;;;;;;;46.78;33.20;;;14.70;99.90;;;;;;5039066;27;20068;-73
2022/04/14 02:02:01;;;;;;;50.95;37.30;;;14.70;99.90;;;;;;5041481;28;20033;-73
2022/04/14 02:04:26;;;;;;;51.97;35.38;;;14.70;99.90;;;;;;5038490;27;20029;-73
2022/04/14 02:06:52;;;;;;;57.95;37.88;;;14.70;99.90;;;;;;5038291;28;20381;-73
2022/04/14 02:09:18;;;;;;;55.92;35.42;;;14.70;99.90;;;;;;5041897;28;20029;-73
2022/04/14 02:11:43;;;;;;;61.40;39.47;;;14.70;99.90;;;;;;5041515;28;20045;-73
2022/04/14 02:14:09;;;;;;;59.58;37.72;;;14.70;99.90;;;;;;5040401;28;20032;-73
2022/04/14 02:16:35;;;;;;;64.72;39.70;;;14.70;99.90;;;;;;5044928;28;20377;-73
2022/04/14 02:19:00;;;;;;;57.50;38.00;;;14.70;99.90;;;;;;5040914;27;20089;-74
2022/04/14 02:21:26;;;;;;;64.47;39.22;;;14.70;99.90;;;;;;5042911;28;20466;-72
2022/04/14 02:23:52;;;;;;;73.60;45.33;;;14.60;99.90;;;;;;5047266;28;20179;-73
2022/04/14 02:26:19;;;;;;;70.97;41.67;;;14.60;99.90;;;;;;5037724;28;20476;-73
2022/04/14 02:28:45;;;;;;;72.93;44.45;;;14.50;99.90;;;;;;5036479;28;20030;-73
2022/04/14 02:31:10;;;;;;;55.75;38.35;;;14.50;99.90;;;;;;5042966;28;20077;-73
2022/04/14 02:33:36;;;;;;;56.15;37.58;;;14.50;99.90;;;;;;5036154;28;20413;-73
2022/04/14 02:36:02;;;;;;;53.08;37.53;;;14.50;99.90;;;;;;5039072;27;20025;-73
2022/04/14 02:38:28;;;;;;;49.28;32.65;;;14.60;99.90;;;;;;5043117;28;20044;-73
2022/04/14 02:40:53;;;;;;;50.45;34.95;;;14.60;99.90;;;;;;5039328;28;20070;-73
2022/04/14 02:43:21;;;;;;;58.88;37.53;;;14.50;99.90;;;;;;5036948;28;20032;-73
2022/04/14 02:45:47;;;;;;;63.72;40.42;;;14.50;99.90;;;;;;5040849;28;20030;-73
2022/04/14 02:48:12;;;;;;;60.05;39.15;;;14.50;99.90;;;;;;5037359;28;20039;-73
2022/04/14 02:50:43;;;;;;;59.50;39.28;;;14.50;99.90;;;;;;5036208;28;20036;-74
2022/04/14 02:53:09;;;;;;;57.30;38.33;;;14.60;99.90;;;;;;5038558;28;20025;-74
2022/04/14 02:55:34;;;;;;;65.35;39.72;;;14.50;99.90;;;;;;5037628;28;20158;-73
2022/04/14 02:58:00;;;;;;;60.03;38.92;;;14.60;99.90;;;;;;5038914;28;20032;-73
2022/04/14 03:00:26;;;;;;;62.63;39.38;;;14.50;99.90;;;;;;5037541;27;20029;-73
2022/04/14 03:02:51;;;;;;;81.38;43.55;;;14.50;99.90;;;;;;5037555;28;20029;-73
2022/04/14 03:05:17;;;;;;;68.78;42.13;;;14.40;99.90;;;;;;5036970;27;20038;-73
2022/04/14 03:07:43;;;;;;;66.45;41.00;;;14.50;99.90;;;;;;5043366;28;20065;-73
2022/04/14 03:10:08;;;;;;;61.08;39.22;;;14.50;99.90;;;;;;5043962;28;20031;-73
2022/04/14 03:12:42;;;;;;;48.83;34.15;;;14.50;99.90;;;;;;5040167;28;20104;-73
2022/04/14 03:15:08;;;;;;;45.42;33.08;;;14.50;99.90;;;;;;5032411;27;20029;-73
2022/04/14 03:17:34;;;;;;;48.53;33.28;;;14.50;99.90;;;;;;5038000;28;20033;-72
2022/04/14 03:19:59;;;;;;;44.83;31.98;;;14.40;99.90;;;;;;5040601;28;20049;-73
2022/04/14 03:22:25;;;;;;;51.42;32.15;;;14.40;99.90;;;;;;5035333;27;20052;-73
2022/04/14 03:24:50;;;;;;;60.25;39.30;;;14.40;99.90;;;;;;5037348;28;20438;-73
2022/04/14 03:27:16;;;;;;;65.70;39.88;;;14.40;99.90;;;;;;5041062;28;20025;-73
2022/04/14 03:29:42;;;;;;;63.55;39.45;;;14.30;99.90;;;;;;5036067;27;20064;-73
2022/04/14 03:32:07;;;;;;;66.80;40.28;;;14.40;99.90;;;;;;5041451;28;20025;-73
2022/04/14 03:34:33;;;;;;;65.70;39.88;;;14.40;99.90;;;;;;5042638;28;20048;-73
2022/04/14 03:36:59;;;;;;;69.78;42.33;;;14.40;99.90;;;;;;5041390;28;20044;-73
2022/04/14 03:39:24;;;;;;;67.50;41.90;;;14.40;99.90;;;;;;5037100;27;20124;-73
2022/04/14 03:41:50;;;;;;;73.55;43.45;;;14.30;99.90;;;;;;5038372;28;20022;-73
2022/04/14 03:44:15;;;;;;;56.13;34.83;;;14.30;99.90;;;;;;5034126;28;20033;-73
2022/04/14 03:46:41;;;;;;;46.17;32.97;;;14.30;99.90;;;;;;5037933;28;20440;-73
2022/04/14 03:49:08;;;;;;;45.15;31.20;;;14.30;99.90;;;;;;5039835;28;20037;-73
2022/04/14 03:51:34;;;;;;;47.05;33.53;;;14.20;99.90;;;;;;5045025;28;20066;-73
2022/04/14 03:53:59;;;;;;;46.25;31.85;;;14.20;99.90;;;;;;5042905;28;22120;-73
2022/04/14 03:56:25;;;;;;;53.42;33.58;;;14.20;99.90;;;;;;5036228;28;20461;-73
2022/04/14 03:58:51;;;;;;;53.55;34.65;;;14.20;99.90;;;;;;5040278;28;20123;-73
2022/04/14 04:01:16;;;;;;;55.38;36.75;;;14.20;99.90;;;;;;5037271;28;20110;-73
2022/04/14 04:03:42;;;;;;;63.47;39.08;;;14.20;99.90;;;;;;5038479;28;20083;-73
2022/04/14 04:06:08;;;;;;;59.53;37.53;;;14.20;99.90;;;;;;5038371;28;20112;-73
2022/04/14 04:08:34;;;;;;;50.88;32.70;;;14.20;99.90;;;;;;5042506;28;20025;-73
2022/04/14 04:10:59;;;;;;;58.45;37.10;;;14.10;99.90;;;;;;5042504;28;20109;-73
2022/04/14 04:13:25;;;;;;;54.75;34.42;;;14.10;99.90;;;;;;5044310;27;20022;-72
2022/04/14 04:15:51;;;;;;;55.42;37.60;;;14.10;99.90;;;;;;5037358;28;20052;-73
2022/04/14 04:18:16;;;;;;;55.40;35.33;;;14.00;99.90;;;;;;5039402;28;20025;-73
2022/04/14 04:20:42;;;;;;;61.10;38.97;;;14.10;99.90;;;;;;5034829;27;20040;-73
2022/04/14 04:23:08;;;;;;;61.72;37.25;;;14.10;99.90;;;;;;5035577;28;20096;-73
2022/04/14 04:25:33;;;;;;;55.17;35.08;;;14.00;99.90;;;;;;5034094;28;20032;-73
2022/04/14 04:27:59;;;;;;;54.85;34.53;;;14.00;99.90;;;;;;5044649;28;20105;-73
2022/04/14 04:30:25;;;;;;;54.92;36.22;;;14.00;99.90;;;;;;5033899;27;20025;-73
2022/04/14 04:32:50;;;;;;;74.13;41.42;;;14.00;99.90;;;;;;5044268;28;20029;-73
2022/04/14 04:35:16;;;;;;;65.43;40.63;;;13.90;99.90;;;;;;5039592;27;20029;-72
2022/04/14 04:37:42;;;;;;;64.90;40.83;;;13.80;99.90;;;;;;5041461;28;20030;-73
2022/04/14 04:40:08;;;;;;;61.53;37.28;;;13.70;99.90;;;;;;5043010;27;20117;-73
2022/04/14 04:42:34;;;;;;;62.15;37.45;;;13.70;99.90;;;;;;5038343;28;20025;-73
2022/04/14 04:45:00;;;;;;;51.28;33.63;;;13.80;99.90;;;;;;5043145;28;20037;-73
2022/04/14 04:47:26;;;;;;;46.22;30.13;;;13.70;99.90;;;;;;5043036;28;20029;-73
2022/04/14 04:49:51;;;;;;;48.25;32.28;;;13.70;99.90;;;;;;5045748;28;20025;-73
2022/04/14 04:52:17;;;;;;;49.40;32.22;;;13.70;99.90;;;;;;5042934;28;20384;-73
2022/04/14 04:54:44;;;;;;;46.08;33.15;;;13.60;99.90;;;;;;5041805;28;20052;-73
2022/04/14 04:57:10;;;;;;;57.78;36.88;;;13.70;99.90;;;;;;5034675;27;20507;-73
2022/04/14 04:59:35;;;;;;;48.42;32.72;;;13.70;99.90;;;;;;5037270;28;20033;-73
2022/04/14 05:02:01;;;;;;;41.92;29.75;;;13.70;99.90;;;;;;5044526;28;20028;-73
2022/04/14 05:04:27;;;;;;;45.70;31.05;;;13.60;99.90;;;;;;5034772;28;20393;-73
2022/04/14 05:06:52;;;;;;;47.33;32.90;;;13.60;99.90;;;;;;5038187;27;20029;-73
2022/04/14 05:09:18;;;;;;;41.95;29.17;;;13.60;99.90;;;;;;5042847;28;20073;-73
2022/04/14 05:11:44;;;;;;;36.60;28.30;;;13.50;99.90;;;;;;5043019;28;20025;-73
2022/04/14 05:14:10;;;;;;;43.00;29.55;;;13.50;99.90;;;;;;5039698;28;20042;-73
2022/04/14 05:16:36;;;;;;;48.08;31.30;;;13.50;99.90;;;;;;5043841;28;20025;-73
2022/04/14 05:19:01;;;;;;;50.35;32.13;;;13.50;99.90;;;;;;5040130;28;20029;-73
2022/04/14 05:21:27;;;;;;;46.78;29.70;;;13.50;99.90;;;;;;5041742;27;20158;-73
2022/04/14 05:23:53;;;;;;;41.78;28.08;;;13.40;99.90;;;;;;5037927;28;20481;-73
2022/04/14 05:26:18;;;;;;;40.67;27.95;;;13.40;99.90;;;;;;5035722;27;20025;-73
2022/04/14 05:28:44;;;;;;;46.25;30.73;;;13.40;99.90;;;;;;5042942;28;20026;-73
2022/04/14 05:31:10;;;;;;;54.13;37.78;;;13.40;99.90;;;;;;5038370;28;20061;-73
2022/04/14 05:33:36;;;;;;;59.75;37.33;;;13.30;99.90;;;;;;5037482;28;20053;-73
2022/04/14 05:36:02;;;;;;;50.03;34.40;;;13.30;99.90;;;;;;5045957;28;20041;-73
2022/04/14 05:38:27;;;;;;;50.75;34.00;;;13.30;99.90;;;;;;5036868;27;20033;-73
2022/04/14 05:40:54;;;;;;;52.72;31.95;;;13.30;99.90;;;;;;5039683;28;20380;-73
2022/04/14 05:43:22;;;;;;;47.35;31.65;;;13.30;99.90;;;;;;5040945;28;20476;-73
2022/04/14 05:45:48;;;;;;;50.67;32.15;;;13.30;99.90;;;;;;5038122;28;20500;-73
2022/04/14 05:48:16;;;;;;;61.30;35.88;;;13.20;99.90;;;;;;5036477;27;20029;-73
2022/04/14 05:50:43;;;;;;;54.90;33.80;;;13.20;99.90;;;;;;5036817;28;20460;-73
2022/04/14 05:53:09;;;;;;;56.80;33.13;;;13.20;99.90;;;;;;5040405;28;20093;-71
2022/04/14 05:55:39;;;;;;;56.83;32.60;;;13.20;99.90;;;;;;5042112;28;20025;-73
2022/04/14 05:58:05;;;;;;;52.47;32.53;;;13.20;99.90;;;;;;5039072;28;20121;-73
2022/04/14 06:00:32;;;;;;;58.42;35.22;;;13.20;99.90;;;;;;5036533;28;20034;-73
2022/04/14 06:02:59;;;;;;;54.25;33.55;;;13.20;99.90;;;;;;5045989;28;20062;-72
2022/04/14 06:05:27;;;;;;;54.95;32.95;;;13.30;99.90;;;;;;5040607;27;20032;-73
2022/04/14 06:07:52;;;;;;;51.17;32.45;;;13.30;99.90;;;;;;5039922;28;20034;-73
2022/04/14 06:10:18;;;;;;;57.78;34.00;;;13.30;99.90;;;;;;5045191;28;20066;-73
2022/04/14 06:12:44;;;;;;;64.97;36.30;;;13.30;99.90;;;;;;5045609;28;20046;-73
2022/04/14 06:15:10;;;;;;;60.10;36.70;;;13.40;99.90;;;;;;5041765;27;20037;-73
2022/04/14 06:17:36;;;;;;;63.15;37.05;;;13.40;99.90;;;;;;5044766;28;20078;-73
2022/04/14 06:20:03;;;;;;;59.33;35.63;;;13.50;99.90;;;;;;5040144;28;20072;-73
2022/04/14 06:22:29;;;;;;;66.22;36.60;;;13.50;99.90;;;;;;5038536;27;20476;-73
2022/04/14 06:24:58;;;;;;;63.10;35.28;;;13.60;99.90;;;;;;5041401;28;20090;-73
2022/04/14 06:27:24;;;;;;;53.25;31.27;;;13.60;99.90;;;;;;5045771;28;20020;-73
2022/04/14 06:29:49;;;;;;;48.97;28.98;;;13.70;99.90;;;;;;5038754;27;20868;-74
2022/04/14 06:32:15;;;;;;;50.63;29.85;;;13.70;99.90;;;;;;5037014;28;20026;-73
2022/04/14 06:34:40;;;;;;;48.20;30.17;;;13.80;99.90;;;;;;5042637;28;20025;-73
2022/04/14 06:37:06;;;;;;;47.92;30.98;;;13.80;99.90;;;;;;5046344;28;20021;-73
2022/04/14 06:39:32;;;;;;;52.92;31.83;;;13.90;99.90;;;;;;5041757;28;20037;-73
2022/04/14 06:41:58;;;;;;;64.60;37.95;;;13.90;99.90;;;;;;5036433;28;20066;-73
2022/04/14 06:44:24;;;;;;;64.57;38.13;;;14.00;99.90;;;;;;5036784;28;20025;-73
2022/04/14 06:46:49;;;;;;;80.20;43.65;;;14.10;99.90;;;;;;5045673;28;20033;-73
2022/04/14 06:49:16;;;;;;;99.38;50.53;;;14.20;99.90;;;;;;5040049;27;20100;-73
2022/04/14 06:51:42;;;;;;;103.93;57.30;;;14.20;99.90;;;;;;5040743;28;20032;-73
2022/04/14 06:54:07;;;;;;;105.95;58.58;;;14.30;99.90;;;;;;5041816;28;20025;-73
2022/04/14 06:56:33;;;;;;;113.13;57.28;;;14.30;99.90;;;;;;5036368;28;20508;-73
2022/04/14 06:58:58;;;;;;;125.30;59.35;;;14.30;99.90;;;;;;5038891;28;20487;-73
2022/04/14 07:01:24;;;;;;;125.15;64.45;;;14.30;99.90;;;;;;5043657;28;20029;-73
2022/04/14 07:03:50;;;;;;;175.00;71.38;;;14.30;99.90;;;;;;5044624;28;20047;-73
2022/04/14 07:06:16;;;;;;;136.20;64.97;;;14.40;99.90;;;;;;5041787;28;20024;-73
2022/04/14 07:08:42;;;;;;;128.55;64.40;;;14.40;99.90;;;;;;5039762;28;20029;-73
2022/04/14 07:11:07;;;;;;;149.68;68.65;;;14.50;99.90;;;;;;5044291;28;20029;-73
2022/04/14 07:13:33;;;;;;;186.15;76.53;;;14.40;99.90;;;;;;5043995;28;20142;-73
2022/04/14 07:16:00;;;;;;;187.35;78.20;;;14.40;99.90;;;;;;5042393;27;20044;-73
2022/04/14 07:18:26;;;;;;;164.75;74.18;;;14.50;99.90;;;;;;5035703;28;20499;-73
2022/04/14 07:20:52;;;;;;;166.57;76.30;;;14.60;99.90;;;;;;5044028;28;20429;-73
2022/04/14 07:23:18;;;;;;;166.35;74.15;;;14.70;99.90;;;;;;5042685;28;20354;-74
2022/04/14 07:25:45;;;;;;;139.88;70.15;;;14.70;99.90;;;;;;5042103;28;20044;-73
2022/04/14 07:28:11;;;;;;;143.15;71.63;;;14.80;99.90;;;;;;5035651;27;20381;-73
2022/04/14 07:30:38;;;;;;;126.38;66.07;;;14.80;99.90;;;;;;5044088;28;20051;-73
2022/04/14 07:33:05;;;;;;;146.63;72.38;;;14.90;99.90;;;;;;5043872;28;20033;-73
2022/04/14 07:35:32;;;;;;;125.68;67.60;;;15.00;99.90;;;;;;5038488;28;20028;-73
2022/04/14 07:37:58;;;;;;;118.85;65.05;;;15.00;99.90;;;;;;5045917;28;20033;-73
2022/04/14 07:40:24;;;;;;;111.07;60.83;;;15.00;99.90;;;;;;5035286;28;20059;-73
2022/04/14 07:42:50;;;;;;;120.97;64.22;;;15.10;99.90;;;;;;5033638;27;20490;-73
2022/04/14 07:45:16;;;;;;;110.20;64.57;;;15.10;99.90;;;;;;5038086;28;20042;-73
2022/04/14 07:47:43;;;;;;;109.95;61.00;;;15.20;99.90;;;;;;5040616;28;20029;-73
2022/04/14 07:50:16;;;;;;;114.10;61.92;;;15.20;99.90;;;;;;5044751;28;20026;-74
2022/04/14 07:52:45;;;;;;;;;;;15.20;99.90;;;;;;5038972;27;20035;-73
2022/04/14 07:55:11;;;;;;;104.43;59.33;;;15.30;99.90;;;;;;5038208;28;20000;-73
2022/04/14 07:57:37;;;;;;;117.60;65.10;;;15.40;99.90;;;;;;5045596;28;20158;-74
2022/04/14 08:00:05;;;;;;;117.28;66.63;;;15.50;99.90;;;;;;5040770;28;20041;-73
2022/04/14 08:02:30;;;;;;;108.28;61.25;;;15.40;99.90;;;;;;5042922;28;20068;-73
2022/04/14 08:04:56;;;;;;;99.88;58.35;;;15.50;99.90;;;;;;5032111;28;20064;-74
2022/04/14 08:07:22;;;;;;;116.35;64.00;;;15.60;99.90;;;;;;5043458;28;20389;-74
2022/04/14 08:09:47;;;;;;;112.10;62.08;;;15.80;99.90;;;;;;5037766;27;20025;-73
2022/04/14 08:12:14;;;;;;;112.78;64.63;;;15.90;99.90;;;;;;5040968;28;20025;-73
2022/04/14 08:14:39;;;;;;;103.50;62.72;;;15.90;99.90;;;;;;5037930;28;20051;-74
2022/04/14 08:17:05;;;;;;;103.32;59.28;;;16.10;99.90;;;;;;5032672;27;20501;-73
2022/04/14 08:19:32;;;;;;;98.95;58.95;;;16.20;99.90;;;;;;5039699;28;20052;-73
2022/04/14 08:21:57;;;;;;;100.57;59.60;;;16.30;99.90;;;;;;5045324;28;20017;-74
2022/04/14 08:24:24;;;;;;;101.00;59.40;;;16.50;99.90;;;;;;5040272;28;20032;-74
2022/04/14 08:26:52;;;;;;;94.18;56.08;;;16.50;99.90;;;;;;5044806;28;20029;-74
2022/04/14 08:29:17;;;;;;;96.07;59.30;;;16.60;99.90;;;;;;5036571;27;20021;-74
2022/04/14 08:31:43;;;;;;;88.88;52.08;;;16.80;99.90;;;;;;5041085;28;20473;-73
2022/04/14 08:34:09;;;;;;;93.13;56.58;;;16.80;99.90;;;;;;5034945;27;20508;-74
2022/04/14 08:36:36;;;;;;;68.30;41.42;;;17.00;99.90;;;;;;5038126;28;20056;-74
2022/04/14 08:39:01;;;;;;;80.30;46.80;;;17.20;99.90;;;;;;5044923;28;20030;-74
2022/04/14 08:41:31;;;;;;;66.35;40.03;;;17.20;99.90;;;;;;5035538;27;20056;-74
2022/04/14 08:44:02;;;;;;;77.25;44.25;;;17.20;99.90;;;;;;5042608;28;20021;-74
2022/04/14 08:46:28;;;;;;;59.63;39.05;;;17.40;99.90;;;;;;5039976;28;20029;-74
2022/04/14 08:48:57;;;;;;;51.92;34.65;;;17.50;99.90;;;;;;5049380;28;20496;-74
2022/04/14 08:51:25;;;;;;;47.50;31.63;;;17.50;99.90;;;;;;5072009;27;20371;-74
2022/04/14 08:53:52;;;;;;;52.22;33.92;;;17.70;99.90;;;;;;5036585;28;20120;-76
2022/04/14 08:56:18;;;;;;;47.85;32.35;;;17.80;99.90;;;;;;5039500;28;20025;-75
2022/04/14 08:58:46;;;;;;;54.95;33.05;;;17.90;99.90;;;;;;5041082;28;20029;-76
2022/04/14 09:01:13;;;;;;;53.47;35.63;;;18.00;99.90;;;;;;5040509;28;20641;-75
2022/04/14 09:03:39;;;;;;;51.55;32.42;;;18.10;99.90;;;;;;5044294;28;20017;-74
2022/04/14 09:06:05;;;;;;;49.58;32.78;;;18.10;99.90;;;;;;5043963;28;20033;-74
2022/04/14 09:08:30;;;;;;;51.00;30.95;;;18.30;99.90;;;;;;5047362;28;20025;-74
2022/04/14 09:10:56;;;;;;;50.13;31.75;;;18.30;99.90;;;;;;5049499;28;20033;-73
2022/04/14 09:13:22;;;;;;;46.92;32.17;;;18.40;99.90;;;;;;5041762;28;20025;-74
2022/04/14 09:15:48;;;;;;;46.38;32.13;;;18.60;99.90;;;;;;5036469;28;20029;-74
2022/04/14 09:18:14;;;;;;;50.70;31.88;;;18.60;99.90;;;;;;5048738;28;20473;-74
2022/04/14 09:20:42;;;;;;;50.10;33.47;;;18.80;99.90;;;;;;5042206;28;20615;-74
2022/04/14 09:23:22;;;;;;;44.78;29.95;;;18.90;99.90;;;;;;5037343;28;20025;-74
2022/04/14 09:26:03;;;;;;;45.33;29.88;;;19.10;99.90;;;;;;5044862;28;20030;-74
2022/04/14 09:28:29;;;;;;;40.92;27.63;;;19.30;99.90;;;;;;5046833;28;20025;-74
2022/04/14 09:31:06;;;;;;;37.20;25.50;;;19.30;99.90;;;;;;5043971;28;20041;-74
2022/04/14 09:33:34;;;;;;;39.53;25.13;;;19.40;99.90;;;;;;5037746;27;20041;-74
2022/04/14 09:36:16;;;;;;;36.63;23.80;;;19.50;99.90;;;;;;5040362;28;20037;-75
2022/04/14 09:38:52;;;;;;;36.35;25.20;;;19.70;99.90;;;;;;5035610;28;20049;-74
2022/04/14 09:41:41;;;;;;;32.92;20.30;;;19.80;99.90;;;;;;5046468;28;20050;-74
2022/04/14 09:44:09;;;;;;;29.55;19.13;;;19.80;99.90;;;;;;5038796;28;20376;-74
2022/04/14 09:46:41;;;;;;;27.98;18.58;;;19.90;99.90;;;;;;5043221;28;20021;-74
2022/04/14 09:49:25;;;;;;;26.13;17.42;;;20.20;99.90;;;;;;5040070;28;20041;-74
2022/04/14 09:51:51;;;;;;;28.55;18.38;;;20.20;99.90;;;;;;5036552;27;20108;-74
2022/04/14 09:54:27;;;;;;;25.60;16.95;;;20.30;99.90;;;;;;5040494;28;20124;-74
2022/04/14 09:56:54;;;;;;;21.70;14.70;;;20.40;99.90;;;;;;5039939;28;20074;-74
2022/04/14 09:59:30;;;;;;;22.45;13.95;;;20.50;99.90;;;;;;5037389;28;20033;-74
2022/04/14 10:02:13;;;;;;;19.02;12.63;;;20.50;99.90;;;;;;5046143;28;20429;-74
2022/04/14 10:04:47;;;;;;;13.73;8.45;;;20.60;99.90;;;;;;5048904;28;20033;-74
2022/04/14 10:07:17;;;;;;;12.63;8.23;;;20.80;99.90;;;;;;5038213;27;20548;-74
2022/04/14 10:09:50;;;;;;;10.90;7.63;;;20.80;99.90;;;;;;5039910;28;20477;-74
2022/04/14 10:12:19;;;;;;;14.48;8.43;;;20.70;99.90;;;;;;5046377;28;20062;-74
2022/04/14 10:15:07;;;;;;;11.82;8.20;;;20.90;99.90;;;;;;5038486;28;20024;-74
2022/04/14 10:17:37;;;;;;;8.02;6.55;;;20.80;99.90;;;;;;5047770;28;20451;-74
2022/04/14 10:20:14;;;;;;;10.80;6.05;;;20.90;99.90;;;;;;5040346;27;20037;-74
2022/04/14 10:22:39;;;;;;;11.38;6.22;;;21.10;99.90;;;;;;5039857;28;20036;-74
2022/04/14 10:25:06;;;;;;;9.95;6.65;;;21.30;99.90;;;;;;5041437;27;20026;-74
2022/04/14 10:27:33;;;;;;;9.70;5.85;;;21.40;99.90;;;;;;5039497;28;20113;-74
2022/04/14 10:29:59;;;;;;;5.80;4.50;;;21.50;99.90;;;;;;5039784;27;20017;-74
2022/04/14 10:32:26;;;;;;;7.63;3.78;;;21.60;99.90;;;;;;5035447;28;20516;-74
2022/04/14 10:34:52;;;;;;;4.38;3.13;;;21.80;99.90;;;;;;5040782;28;20112;-74
2022/04/14 10:37:24;;;;;;;9.70;4.70;;;21.80;99.90;;;;;;5039369;27;20441;-74
2022/04/14 10:39:50;;;;;;;8.57;6.25;;;21.70;99.90;;;;;;5039750;28;20160;-74
2022/04/14 10:42:21;;;;;;;4.72;4.07;;;21.80;99.90;;;;;;5039125;27;20022;-74
2022/04/14 10:44:49;;;;;;;8.23;4.88;;;21.70;99.90;;;;;;5044971;28;20374;-74
2022/04/14 10:47:34;;;;;;;6.15;4.68;;;21.80;99.90;;;;;;5041347;28;20014;-74
2022/04/14 10:50:00;;;;;;;4.18;3.13;;;21.60;99.90;;;;;;5044365;28;20507;-74
2022/04/14 10:52:27;;;;;;;4.30;2.30;;;21.60;99.90;;;;;;5046464;28;20025;-74
2022/04/14 10:54:59;;;;;;;5.90;3.60;;;21.50;99.90;;;;;;5036685;28;20108;-74
2022/04/14 10:57:41;;;;;;;7.68;4.70;;;21.40;99.90;;;;;;5037994;27;20025;-74
2022/04/14 11:00:19;;;;;;;6.20;3.53;;;21.70;99.90;;;;;;5039403;28;20033;-74
2022/04/14 11:03:14;;;;;;;4.53;2.28;;;21.50;99.90;;;;;;5036426;27;20033;-75
2022/04/14 11:05:41;;;;;;;5.78;2.58;;;21.20;99.90;;;;;;5034191;28;20120;-74
2022/04/14 11:08:31;;;;;;;3.53;2.50;;;21.00;99.90;;;;;;5039708;27;20037;-74
2022/04/14 11:11:13;;;;;;;3.58;3.28;;;20.90;99.90;;;;;;5038189;28;20112;-74
2022/04/14 11:13:51;;;;;;;4.32;3.30;;;21.00;99.90;;;;;;5040391;27;20033;-75
2022/04/14 11:16:42;;;;;;;5.25;3.33;;;21.10;99.90;;;;;;5039642;28;20029;-78
2022/04/14 11:19:20;;;;;;;5.53;3.10;;;21.10;99.90;;;;;;5036059;28;20049;-77
2022/04/14 11:22:00;;;;;;;10.00;3.08;;;21.00;99.90;;;;;;5042977;28;20028;-77
2022/04/14 11:24:40;;;;;;;3.08;2.00;;;20.90;99.90;;;;;;5040531;27;20040;-77
2022/04/14 11:27:24;;;;;;;4.53;1.70;;;21.00;99.90;;;;;;5045452;28;20050;-77
2022/04/14 11:29:53;;;;;;;4.22;1.63;;;21.10;99.90;;;;;;5033171;28;20430;-74
2022/04/14 11:32:37;;;;;;;2.17;1.30;;;21.10;99.90;;;;;;5040904;28;20021;-74
2022/04/14 11:35:13;;;;;;;1.65;1.13;;;21.10;99.90;;;;;;5039844;27;20113;-75
2022/04/14 11:37:44;;;;;;;2.15;1.30;;;21.10;99.90;;;;;;5037702;28;20060;-74
2022/04/14 11:40:29;;;;;;;4.82;2.15;;;21.30;99.90;;;;;;5043693;28;20077;-75
2022/04/14 11:43:00;;;;;;;3.92;2.10;;;21.70;99.90;;;;;;5038567;28;20044;-74
2022/04/14 11:45:28;;;;;;;5.03;2.50;;;21.70;99.90;;;;;;5033802;28;20025;-74
2022/04/14 11:47:59;;;;;;;2.72;2.30;;;21.90;99.90;;;;;;5035633;27;20036;-74
2022/04/14 11:50:29;;;;;;;3.60;2.40;;;22.00;99.90;;;;;;5035638;28;20021;-74
2022/04/14 11:53:00;;;;;;;4.65;2.92;;;22.00;99.80;;;;;;5036678;28;20474;-74
2022/04/14 11:55:42;;;;;;;2.80;2.60;;;22.20;99.90;;;;;;5043379;28;20472;-74
2022/04/14 11:58:12;;;;;;;6.65;2.95;;;21.90;99.90;;;;;;5042703;28;20077;-75
2022/04/14 12:00:45;;;;;;;3.70;2.60;;;21.70;99.90;;;;;;5038426;28;20033;-75
2022/04/14 12:03:11;;;;;;;5.18;3.08;;;21.50;99.90;;;;;;5043473;28;20022;-75
2022/04/14 12:05:37;;;;;;;4.40;3.40;;;21.30;99.60;;;;;;5042288;27;20115;-74
2022/04/14 12:08:10;;;;;;;5.32;3.30;;;21.20;99.90;;;;;;5039240;28;20121;-74
2022/04/14 12:10:37;;;;;;;6.03;3.30;;;21.30;99.90;;;;;;5045782;28;20029;-75
2022/04/14 12:13:09;;;;;;;4.35;3.95;;;21.60;99.90;;;;;;5041780;28;20029;-74
2022/04/14 12:15:36;;;;;;;7.65;4.50;;;21.90;99.90;;;;;;5037080;27;20061;-74
2022/04/14 12:18:10;;;;;;;7.25;4.55;;;22.20;99.90;;;;;;5044023;28;20054;-75
2022/04/14 12:20:44;;;;;;;7.00;4.43;;;22.30;99.90;;;;;;5037831;28;20066;-75
2022/04/14 12:23:10;;;;;;;7.07;3.33;;;22.30;99.50;;;;;;5045821;28;20029;-74
2022/04/14 12:25:37;;;;;;;8.20;3.38;;;22.30;99.90;;;;;;5039625;28;20029;-75
2022/04/14 12:28:04;;;;;;;9.18;3.85;;;22.50;99.90;;;;;;5042310;28;20025;-75
2022/04/14 12:30:30;;;;;;;8.15;4.30;;;22.40;99.90;;;;;;5038264;27;20021;-74
2022/04/14 12:33:02;;;;;;;7.30;5.57;;;22.20;99.90;;;;;;5043204;28;20040;-74